Time;durP1;ratioP1;P1;durP2;ratioP2;P2;SDS_P1;SDS_P2;PMS_P1;PMS_P2;Temp;Humidity;BMP_temperature;BMP_pressure;BME280_temperature;BME280_humidity;BME280_pressure;Samples;Min_cycle;Max_cycle;Signal;HPM_P1;HPM_P2
2021/11/21 00:02:11;;;;;;;19.67;14.75;;;;;;;;;;4993557;28;20034;-73
2021/11/21 00:04:37;;;;;;;27.95;16.35;;;;;;;;;;4993246;28;20034;-73
2021/11/21 00:07:03;;;;;;;23.20;16.05;;;;;;;;;;4993246;28;20434;-73
2021/11/21 00:09:29;;;;;;;29.98;18.58;;;;;;;;;;4992072;28;20387;-74
2021/11/21 00:11:56;;;;;;;27.13;17.10;;;;;;;;;;4992894;28;20017;-74
2021/11/21 00:14:22;;;;;;;31.83;19.75;;;;;;;;;;4992902;28;20030;-72
2021/11/21 00:16:48;;;;;;;24.80;17.20;;;;;;;;;;4993075;28;20106;-73
2021/11/21 00:19:14;;;;;;;25.38;17.50;;;;;;;;;;4993295;28;20113;-73
2021/11/21 00:21:40;;;;;;;29.13;19.63;;;;;;;;;;4994234;28;20525;-73
2021/11/21 00:24:06;;;;;;;31.02;19.02;;;;;;;;;;4994964;28;20122;-74
2021/11/21 00:26:32;;;;;;;26.75;17.70;;;;;;;;;;4994207;28;20022;-74
2021/11/21 00:28:58;;;;;;;27.02;17.38;;;;;;;;;;4993666;28;20077;-73
2021/11/21 00:31:24;;;;;;;27.92;18.45;;;;;;;;;;4994042;28;20030;-74
2021/11/21 00:33:50;;;;;;;36.60;21.42;;;;;;;;;;4992844;28;20033;-73
2021/11/21 00:36:16;;;;;;;28.77;18.95;;;;;;;;;;4992866;28;20030;-73
2021/11/21 00:38:42;;;;;;;29.90;18.90;;;;;;;;;;4992489;28;20046;-73
2021/11/21 00:41:09;;;;;;;30.55;19.75;;;;;;;;;;4991379;28;20037;-72
2021/11/21 00:43:35;;;;;;;26.58;17.33;;;;;;;;;;4991099;28;20050;-72
2021/11/21 00:46:01;;;;;;;25.90;17.90;;;;;;;;;;4992802;28;20041;-73
2021/11/21 00:48:28;;;;;;;27.60;17.48;;;;;;;;;;4991531;28;20542;-73
2021/11/21 00:50:56;;;;;;;30.58;18.48;;;;;;;;;;4991350;28;20026;-73
2021/11/21 00:53:23;;;;;;;28.15;17.48;;;;;;;;;;4992296;28;20026;-73
2021/11/21 00:58:15;;;;;;;24.15;16.50;;;;;;;;;;4992494;28;20033;-74
2021/11/21 01:00:42;;;;;;;22.83;14.77;;;;;;;;;;4992389;28;20042;-74
2021/11/21 01:03:09;;;;;;;28.65;17.40;;;;;;;;;;4992383;28;20031;-73
2021/11/21 01:05:35;;;;;;;29.25;16.75;;;;;;;;;;4992436;28;20057;-74
2021/11/21 01:08:01;;;;;;;28.20;16.92;;;;;;;;;;4991235;28;20022;-74
2021/11/21 01:10:28;;;;;;;26.23;16.90;;;;;;;;;;4990866;28;20495;-73
2021/11/21 01:12:54;;;;;;;24.58;15.30;;;;;;;;;;4992204;28;20033;-73
2021/11/21 01:15:22;;;;;;;26.55;16.33;;;;;;;;;;4990899;28;20439;-73
2021/11/21 01:17:49;;;;;;;23.55;15.38;;;;;;;;;;4991168;28;20117;-73
2021/11/21 01:20:15;;;;;;;27.65;16.88;;;;;;;;;;4992045;28;20030;-74
2021/11/21 01:22:41;;;;;;;26.67;17.05;;;;;;;;;;4992262;28;20568;-73
2021/11/21 01:25:08;;;;;;;24.95;16.48;;;;;;;;;;4992230;28;20110;-74
2021/11/21 01:27:34;;;;;;;32.35;19.05;;;;;;;;;;4992331;28;20027;-74
2021/11/21 01:30:00;;;;;;;28.40;16.95;;;;;;;;;;4992268;28;20065;-74
2021/11/21 01:32:26;;;;;;;23.00;15.30;;;;;;;;;;4992256;28;20014;-74
2021/11/21 01:34:53;;;;;;;26.52;17.60;;;;;;;;;;4992010;28;20462;-74
2021/11/21 01:37:19;;;;;;;25.83;17.35;;;;;;;;;;4990894;28;20030;-74
2021/11/21 01:39:46;;;;;;;25.75;18.08;;;;;;;;;;4992170;28;20451;-74
2021/11/21 01:42:12;;;;;;;25.90;16.70;;;;;;;;;;4992407;28;20033;-74
2021/11/21 01:44:38;;;;;;;25.95;16.70;;;;;;;;;;4992438;28;20035;-74
2021/11/21 01:47:06;;;;;;;25.88;17.52;;;;;;;;;;4992180;28;20038;-73
2021/11/21 01:49:32;;;;;;;26.98;16.90;;;;;;;;;;4992039;28;20022;-73
2021/11/21 01:51:58;;;;;;;26.23;16.58;;;;;;;;;;4995791;28;20031;-74
2021/11/21 01:54:24;;;;;;;25.27;17.38;;;;;;;;;;4995445;28;20026;-74
2021/11/21 01:56:50;;;;;;;26.95;17.05;;;;;;;;;;4996020;28;20026;-73
2021/11/21 01:59:16;;;;;;;24.92;15.57;;;;;;;;;;4995790;28;20112;-73
2021/11/21 02:01:43;;;;;;;28.05;17.08;;;;;;;;;;4995719;28;20037;-74
2021/11/21 02:04:09;;;;;;;29.33;15.50;;;;;;;;;;4995248;28;20062;-73
2021/11/21 02:06:35;;;;;;;25.80;15.88;;;;;;;;;;4995665;28;20030;-74
2021/11/21 02:09:01;;;;;;;26.35;17.23;;;;;;;;;;4995470;28;20030;-74
2021/11/21 02:11:27;;;;;;;26.52;16.50;;;;;;;;;;4995534;28;20546;-74
2021/11/21 02:13:54;;;;;;;22.35;16.33;;;;;;;;;;4995139;28;20034;-72
2021/11/21 02:16:21;;;;;;;24.70;16.45;;;;;;;;;;4995276;28;20041;-74
2021/11/21 02:18:48;;;;;;;23.70;15.68;;;;;;;;;;4995188;28;20038;-73
2021/11/21 02:21:15;;;;;;;23.70;15.55;;;;;;;;;;4995080;28;20040;-74
2021/11/21 02:23:41;;;;;;;22.77;15.38;;;;;;;;;;4994847;28;20105;-74
2021/11/21 02:26:08;;;;;;;21.92;15.10;;;;;;;;;;4995118;28;20021;-73
2021/11/21 02:28:36;;;;;;;24.02;15.27;;;;;;;;;;4995190;28;20022;-74
2021/11/21 02:31:03;;;;;;;21.17;14.07;;;;;;;;;;4994833;28;20030;-73
2021/11/21 02:33:29;;;;;;;22.42;15.00;;;;;;;;;;4994871;28;20030;-74
2021/11/21 02:35:57;;;;;;;21.25;14.13;;;;;;;;;;4995036;28;20030;-75
2021/11/21 02:38:24;;;;;;;20.17;14.35;;;;;;;;;;4994901;28;20484;-73
2021/11/21 02:40:50;;;;;;;21.23;14.18;;;;;;;;;;4994813;28;20491;-73
2021/11/21 02:43:18;;;;;;;23.98;15.20;;;;;;;;;;4994549;28;20475;-73
2021/11/21 02:45:45;;;;;;;25.83;16.60;;;;;;;;;;4994772;28;20023;-73
2021/11/21 02:48:11;;;;;;;24.10;14.77;;;;;;;;;;4995175;28;20030;-74
2021/11/21 02:50:37;;;;;;;21.45;14.45;;;;;;;;;;4994983;28;20080;-74
2021/11/21 02:53:03;;;;;;;24.52;16.73;;;;;;;;;;4994678;28;20463;-73
2021/11/21 02:55:31;;;;;;;27.70;15.73;;;;;;;;;;4993577;28;20018;-74
2021/11/21 02:57:57;;;;;;;27.00;17.98;;;;;;;;;;4994527;28;20487;-74
2021/11/21 03:00:24;;;;;;;21.17;14.98;;;;;;;;;;4993081;28;20030;-74
2021/11/21 03:02:50;;;;;;;22.30;15.63;;;;;;;;;;4994275;28;20506;-73
2021/11/21 03:05:17;;;;;;;26.08;16.80;;;;;;;;;;4994539;28;20073;-73
2021/11/21 03:07:44;;;;;;;27.35;17.10;;;;;;;;;;4994540;28;20026;-73
2021/11/21 03:10:12;;;;;;;25.75;17.73;;;;;;;;;;4994435;28;20046;-73
2021/11/21 03:12:38;;;;;;;25.65;15.75;;;;;;;;;;4990085;28;20026;-73
2021/11/21 03:15:05;;;;;;;29.52;16.92;;;;;;;;;;4994139;28;20565;-73
2021/11/21 03:17:31;;;;;;;27.60;17.52;;;;;;;;;;4992952;28;20499;-73
2021/11/21 03:19:57;;;;;;;27.95;17.73;;;;;;;;;;4994086;28;20483;-73
2021/11/21 03:22:23;;;;;;;26.85;17.30;;;;;;;;;;4993982;28;20041;-74
2021/11/21 03:24:49;;;;;;;25.45;16.48;;;;;;;;;;4992450;28;20023;-73
2021/11/21 03:27:15;;;;;;;25.70;16.83;;;;;;;;;;4992695;28;20029;-74
2021/11/21 03:29:41;;;;;;;25.83;16.27;;;;;;;;;;5018739;23;20042;-67
2021/11/21 03:32:08;;;;;;;23.08;15.50;;;;;;;;;;5013244;28;20056;-66
2021/11/21 03:34:37;;;;;;;24.65;17.67;;;;;;;;;;5012544;28;20029;-66
2021/11/21 03:37:04;;;;;;;20.73;14.95;;;;;;;;;;5013363;28;20025;-66
2021/11/21 03:39:30;;;;;;;23.38;15.65;;;;;;;;;;5013295;28;20109;-66
2021/11/21 03:41:56;;;;;;;22.65;14.77;;;;;;;;;;5013125;28;20095;-66
2021/11/21 03:44:22;;;;;;;25.00;15.63;;;;;;;;;;5013187;28;20033;-66
2021/11/21 03:46:48;;;;;;;25.83;16.25;;;;;;;;;;5013276;28;20022;-66
2021/11/21 03:49:14;;;;;;;27.38;17.63;;;;;;;;;;5013089;28;20084;-66
2021/11/21 03:51:40;;;;;;;23.48;16.70;;;;;;;;;;5012918;28;20025;-66
2021/11/21 03:54:06;;;;;;;24.48;16.23;;;;;;;;;;5012813;28;20129;-67
2021/11/21 03:56:32;;;;;;;28.33;15.07;;;;;;;;;;5012900;28;20503;-67
2021/11/21 03:58:58;;;;;;;23.00;15.05;;;;;;;;;;5012957;28;20100;-67
2021/11/21 04:01:24;;;;;;;24.80;16.92;;;;;;;;;;5012949;28;20034;-67
2021/11/21 04:03:51;;;;;;;22.67;16.00;;;;;;;;;;5012663;28;20553;-67
2021/11/21 04:06:17;;;;;;;24.10;16.65;;;;;;;;;;5013003;28;20022;-66
2021/11/21 04:08:44;;;;;;;24.10;15.90;;;;;;;;;;5013599;28;20399;-66
2021/11/21 04:11:10;;;;;;;25.42;16.75;;;;;;;;;;5012926;28;20037;-66
2021/11/21 04:13:36;;;;;;;22.95;15.93;;;;;;;;;;5012469;28;20022;-67
2021/11/21 04:16:02;;;;;;;20.70;14.82;;;;;;;;;;5012889;28;20026;-67
2021/11/21 04:18:28;;;;;;;27.05;16.63;;;;;;;;;;5012994;28;20025;-67
2021/11/21 04:20:54;;;;;;;24.65;16.67;;;;;;;;;;5012521;28;20033;-67
2021/11/21 04:23:21;;;;;;;23.92;16.45;;;;;;;;;;5012206;28;20113;-67
2021/11/21 04:25:47;;;;;;;22.52;15.32;;;;;;;;;;5012349;28;20506;-67
2021/11/21 04:28:13;;;;;;;24.20;16.80;;;;;;;;;;5012464;28;20041;-67
2021/11/21 04:30:39;;;;;;;22.35;16.23;;;;;;;;;;5012247;28;20030;-67
2021/11/21 04:33:05;;;;;;;22.77;16.67;;;;;;;;;;5012185;28;20026;-67
2021/11/21 04:35:32;;;;;;;25.25;16.85;;;;;;;;;;5012205;28;20025;-67
2021/11/21 04:37:58;;;;;;;25.75;17.25;;;;;;;;;;5012384;28;20025;-67
2021/11/21 04:40:24;;;;;;;22.65;15.30;;;;;;;;;;5012107;28;20044;-67
2021/11/21 04:42:50;;;;;;;23.75;16.27;;;;;;;;;;5012177;28;20022;-67
2021/11/21 04:45:16;;;;;;;22.02;16.08;;;;;;;;;;5012246;28;20392;-67
2021/11/21 04:47:43;;;;;;;27.48;18.50;;;;;;;;;;5012147;28;20041;-67
2021/11/21 04:50:09;;;;;;;28.85;17.88;;;;;;;;;;5012160;28;20049;-67
2021/11/21 04:52:36;;;;;;;23.88;16.63;;;;;;;;;;5010826;28;20022;-67
2021/11/21 04:55:02;;;;;;;25.58;16.80;;;;;;;;;;5011823;28;20113;-67
2021/11/21 04:57:28;;;;;;;28.77;18.38;;;;;;;;;;5012083;28;20030;-67
2021/11/21 04:59:54;;;;;;;25.75;17.00;;;;;;;;;;5012207;28;20030;-67
2021/11/21 05:02:20;;;;;;;27.25;18.65;;;;;;;;;;5012138;28;20026;-67
2021/11/21 05:04:46;;;;;;;24.80;17.20;;;;;;;;;;5011864;28;20120;-67
2021/11/21 05:07:12;;;;;;;27.55;19.42;;;;;;;;;;5012012;28;20014;-67
2021/11/21 05:09:38;;;;;;;27.60;18.30;;;;;;;;;;5011809;28;20030;-67
2021/11/21 05:12:05;;;;;;;31.63;20.05;;;;;;;;;;5012254;28;20076;-67
2021/11/21 05:14:31;;;;;;;29.70;17.80;;;;;;;;;;5011599;28;20026;-67
2021/11/21 05:16:59;;;;;;;26.90;18.70;;;;;;;;;;5011925;28;20391;-67
2021/11/21 05:19:25;;;;;;;34.25;20.38;;;;;;;;;;5011683;28;20495;-67
2021/11/21 05:21:51;;;;;;;28.73;19.27;;;;;;;;;;5011694;28;20119;-67
2021/11/21 05:24:23;;;;;;;31.65;19.88;;;;;;;;;;5011569;28;20089;-67
2021/11/21 05:26:49;;;;;;;28.50;18.30;;;;;;;;;;5015324;28;20029;-67
2021/11/21 05:29:15;;;;;;;27.50;19.38;;;;;;;;;;5015685;28;20042;-67
2021/11/21 05:31:41;;;;;;;31.23;20.70;;;;;;;;;;5015497;28;20030;-68
2021/11/21 05:34:07;;;;;;;28.23;19.55;;;;;;;;;;5015415;28;20026;-67
2021/11/21 05:36:34;;;;;;;29.25;18.63;;;;;;;;;;5015541;28;20113;-67
2021/11/21 05:39:00;;;;;;;26.35;17.73;;;;;;;;;;5015596;28;20060;-67
2021/11/21 05:41:26;;;;;;;29.33;19.25;;;;;;;;;;5015838;28;20026;-67
2021/11/21 05:43:52;;;;;;;33.97;19.95;;;;;;;;;;5015243;28;20364;-67
2021/11/21 05:46:18;;;;;;;29.33;19.90;;;;;;;;;;5015398;28;20105;-67
2021/11/21 05:48:44;;;;;;;30.30;21.23;;;;;;;;;;5015250;28;20018;-67
2021/11/21 05:51:10;;;;;;;29.73;19.20;;;;;;;;;;5015188;28;20061;-68
2021/11/21 05:53:36;;;;;;;28.33;19.25;;;;;;;;;;5014952;28;20037;-68
2021/11/21 05:56:02;;;;;;;27.60;19.77;;;;;;;;;;5015185;28;20022;-67
2021/11/21 05:58:28;;;;;;;25.42;17.80;;;;;;;;;;5015583;28;20025;-67
2021/11/21 06:00:54;;;;;;;28.58;18.05;;;;;;;;;;5015227;28;20472;-67
2021/11/21 06:03:20;;;;;;;26.77;19.10;;;;;;;;;;5014823;28;20034;-68
2021/11/21 06:05:46;;;;;;;29.65;19.92;;;;;;;;;;5014924;28;20033;-67
2021/11/21 06:08:12;;;;;;;29.40;19.70;;;;;;;;;;5013942;28;20391;-67
2021/11/21 06:10:40;;;;;;;27.02;18.65;;;;;;;;;;5013687;28;20044;-67
2021/11/21 06:13:06;;;;;;;28.65;19.85;;;;;;;;;;5014511;28;20018;-68
2021/11/21 06:15:32;;;;;;;32.20;20.48;;;;;;;;;;5014891;28;20084;-67
2021/11/21 06:17:58;;;;;;;31.80;19.90;;;;;;;;;;5014674;28;20403;-67
2021/11/21 06:20:24;;;;;;;29.17;19.25;;;;;;;;;;5014544;28;20096;-67
2021/11/21 06:22:50;;;;;;;26.23;18.08;;;;;;;;;;5014446;28;20475;-67
2021/11/21 06:25:16;;;;;;;29.65;19.08;;;;;;;;;;5014571;28;20038;-67
2021/11/21 06:27:42;;;;;;;27.95;18.98;;;;;;;;;;5014520;28;20033;-67
2021/11/21 06:30:09;;;;;;;26.17;17.95;;;;;;;;;;5014456;28;20161;-67
2021/11/21 06:32:35;;;;;;;25.58;18.67;;;;;;;;;;5014569;28;20021;-67
2021/11/21 06:35:01;;;;;;;29.55;18.73;;;;;;;;;;5014134;28;20030;-67
2021/11/21 06:37:28;;;;;;;24.40;17.25;;;;;;;;;;5014177;28;20447;-68
2021/11/21 06:39:54;;;;;;;28.05;18.00;;;;;;;;;;5014267;28;20030;-68
2021/11/21 06:42:20;;;;;;;31.33;20.27;;;;;;;;;;5014275;28;20104;-67
2021/11/21 06:44:46;;;;;;;26.98;18.02;;;;;;;;;;5014124;28;20092;-68
2021/11/21 06:47:13;;;;;;;30.85;19.33;;;;;;;;;;5014186;28;20026;-68
2021/11/21 06:49:39;;;;;;;27.35;18.02;;;;;;;;;;5014075;28;20080;-67
2021/11/21 06:52:05;;;;;;;27.52;18.40;;;;;;;;;;5014374;28;20025;-67
2021/11/21 06:54:31;;;;;;;27.75;17.25;;;;;;;;;;5014008;28;20021;-67
2021/11/21 06:56:57;;;;;;;25.40;17.65;;;;;;;;;;5012800;28;20439;-67
2021/11/21 06:59:23;;;;;;;22.70;15.70;;;;;;;;;;5014043;28;20057;-67
2021/11/21 07:01:49;;;;;;;27.55;17.60;;;;;;;;;;5013890;28;20072;-67
2021/11/21 07:04:16;;;;;;;28.58;18.48;;;;;;;;;;5013657;28;20034;-67
2021/11/21 07:06:43;;;;;;;25.33;17.25;;;;;;;;;;5013893;28;20430;-66
2021/11/21 07:09:10;;;;;;;23.42;16.67;;;;;;;;;;5013856;28;20045;-66
2021/11/21 07:11:37;;;;;;;25.50;17.08;;;;;;;;;;5014159;28;20053;-68
2021/11/21 07:14:03;;;;;;;26.38;18.73;;;;;;;;;;5009469;28;20222;-67
2021/11/21 07:16:29;;;;;;;26.45;18.08;;;;;;;;;;4994557;28;20038;-68
2021/11/21 07:18:56;;;;;;;26.88;18.05;;;;;;;;;;4994198;28;20037;-67
2021/11/21 07:21:22;;;;;;;24.02;16.58;;;;;;;;;;4998606;28;20416;-68
2021/11/21 07:23:48;;;;;;;28.45;18.15;;;;;;;;;;5013570;28;20405;-67
2021/11/21 07:26:14;;;;;;;25.50;17.30;;;;;;;;;;5013809;28;20033;-68
2021/11/21 07:28:40;;;;;;;24.40;17.67;;;;;;;;;;5013414;28;20029;-68
2021/11/21 07:31:07;;;;;;;25.08;17.33;;;;;;;;;;5013086;28;20081;-68
2021/11/21 07:33:33;;;;;;;25.40;17.92;;;;;;;;;;5013193;28;20383;-68
2021/11/21 07:35:59;;;;;;;24.42;17.15;;;;;;;;;;5013434;28;20083;-68
2021/11/21 07:38:25;;;;;;;26.70;17.42;;;;;;;;;;5013285;28;20107;-68
2021/11/21 07:40:52;;;;;;;24.88;16.73;;;;;;;;;;5013589;28;20036;-68
2021/11/21 07:43:19;;;;;;;27.45;18.35;;;;;;;;;;5012971;28;20096;-68
2021/11/21 07:45:45;;;;;;;27.63;19.33;;;;;;;;;;5013367;28;20468;-68
2021/11/21 07:48:11;;;;;;;28.67;18.35;;;;;;;;;;5016136;28;20104;-68
2021/11/21 07:50:37;;;;;;;27.63;18.67;;;;;;;;;;5013702;28;20565;-68
2021/11/21 07:53:03;;;;;;;25.40;17.83;;;;;;;;;;5021609;28;20068;-68
2021/11/21 07:55:29;;;;;;;27.58;18.92;;;;;;;;;;5031936;28;20033;-68
2021/11/21 07:57:55;;;;;;;29.35;19.73;;;;;;;;;;5029075;28;20373;-68
2021/11/21 08:00:21;;;;;;;26.35;18.80;;;;;;;;;;5013093;28;20030;-68
2021/11/21 08:02:48;;;;;;;27.00;17.98;;;;;;;;;;5012234;28;20462;-68
2021/11/21 08:05:14;;;;;;;27.70;18.00;;;;;;;;;;5013272;28;20088;-68
2021/11/21 08:07:40;;;;;;;28.60;19.58;;;;;;;;;;5032013;28;20053;-68
2021/11/21 08:10:07;;;;;;;31.17;20.08;;;;;;;;;;5032154;28;20029;-69
2021/11/21 08:12:33;;;;;;;26.67;18.65;;;;;;;;;;5030157;28;20495;-68
2021/11/21 08:14:59;;;;;;;32.33;19.60;;;;;;;;;;5012363;28;20022;-68
2021/11/21 08:17:25;;;;;;;31.27;19.48;;;;;;;;;;5012591;28;20030;-65
2021/11/21 08:19:51;;;;;;;28.00;19.60;;;;;;;;;;5014263;28;20033;-65
2021/11/21 08:22:17;;;;;;;27.38;18.13;;;;;;;;;;5016274;28;20040;-66
2021/11/21 08:24:43;;;;;;;28.00;18.65;;;;;;;;;;5029003;28;20022;-66
2021/11/21 08:27:11;;;;;;;26.85;19.20;;;;;;;;;;5012645;28;20030;-66
2021/11/21 08:29:38;;;;;;;25.05;18.20;;;;;;;;;;5012059;28;20053;-65
2021/11/21 08:32:04;;;;;;;28.08;18.35;;;;;;;;;;5012375;28;20443;-66
2021/11/21 08:34:30;;;;;;;26.42;19.35;;;;;;;;;;5012132;28;20061;-66
2021/11/21 08:36:56;;;;;;;26.50;18.27;;;;;;;;;;5014351;28;20037;-66
2021/11/21 08:39:22;;;;;;;26.92;18.50;;;;;;;;;;5024084;28;20040;-65
2021/11/21 08:41:49;;;;;;;27.90;18.48;;;;;;;;;;5016657;28;20037;-66
2021/11/21 08:44:15;;;;;;;26.38;18.25;;;;;;;;;;5027958;28;20040;-66
2021/11/21 08:46:41;;;;;;;27.10;18.33;;;;;;;;;;5011950;28;20088;-66
2021/11/21 08:49:07;;;;;;;29.50;18.92;;;;;;;;;;5012681;28;20490;-66
2021/11/21 08:51:33;;;;;;;28.90;19.33;;;;;;;;;;5012257;28;20538;-66
2021/11/21 08:53:59;;;;;;;27.95;18.92;;;;;;;;;;5012006;28;20038;-66
2021/11/21 08:56:25;;;;;;;29.05;18.52;;;;;;;;;;5012193;28;20018;-67
2021/11/21 08:58:51;;;;;;;29.55;19.55;;;;;;;;;;5011408;28;20040;-69
2021/11/21 09:01:17;;;;;;;28.08;18.25;;;;;;;;;;5012086;28;20026;-69
2021/11/21 09:03:43;;;;;;;29.55;18.83;;;;;;;;;;4992299;28;20027;-69
2021/11/21 09:06:10;;;;;;;26.88;19.13;;;;;;;;;;4992458;28;20026;-69
2021/11/21 09:08:36;;;;;;;29.02;19.42;;;;;;;;;;4991394;28;20388;-69
2021/11/21 09:11:02;;;;;;;30.30;18.65;;;;;;;;;;4991024;28;20419;-68
2021/11/21 09:13:28;;;;;;;27.73;19.80;;;;;;;;;;5004983;28;20177;-68
2021/11/21 09:15:55;;;;;;;28.05;18.63;;;;;;;;;;5010631;28;20026;-67
2021/11/21 09:18:24;;;;;;;28.48;18.52;;;;;;;;;;5011956;28;20026;-68
2021/11/21 09:20:50;;;;;;;30.38;19.33;;;;;;;;;;5012660;28;20026;-68
2021/11/21 09:23:19;;;;;;;28.77;18.98;;;;;;;;;;5013001;28;20022;-68
2021/11/21 09:25:45;;;;;;;30.08;19.65;;;;;;;;;;5012294;28;20442;-68
2021/11/21 09:28:11;;;;;;;29.20;18.83;;;;;;;;;;5011712;28;20395;-68
2021/11/21 09:30:37;;;;;;;26.77;17.80;;;;;;;;;;5010155;28;20395;-69
2021/11/21 09:33:03;;;;;;;32.03;20.33;;;;;;;;;;5013058;28;20030;-70
2021/11/21 09:35:29;;;;;;;29.20;19.20;;;;;;;;;;5011716;28;20048;-70
2021/11/21 09:37:55;;;;;;;34.22;19.10;;;;;;;;;;5011776;28;20025;-70
2021/11/21 09:40:22;;;;;;;28.90;18.40;;;;;;;;;;5011743;28;20034;-67
2021/11/21 09:42:48;;;;;;;31.33;19.80;;;;;;;;;;5011501;28;20030;-67
2021/11/21 09:45:15;;;;;;;30.33;20.20;;;;;;;;;;5011363;28;20033;-68
2021/11/21 09:47:41;;;;;;;35.00;20.52;;;;;;;;;;5011852;28;20100;-68
2021/11/21 09:50:08;;;;;;;32.30;20.45;;;;;;;;;;5012292;28;20022;-68
2021/11/21 09:52:34;;;;;;;33.30;21.77;;;;;;;;;;5011715;28;20026;-68
2021/11/21 09:55:00;;;;;;;32.63;20.38;;;;;;;;;;5011476;28;20387;-68
2021/11/21 09:57:28;;;;;;;29.95;19.40;;;;;;;;;;5010308;28;20472;-68
2021/11/21 10:00:02;;;;;;;31.77;19.83;;;;;;;;;;5011157;28;20079;-65
2021/11/21 10:02:48;;;;;;;32.08;20.52;;;;;;;;;;5011721;28;20052;-66
2021/11/21 10:05:17;;;;;;;33.42;20.77;;;;;;;;;;5011370;28;20061;-66
2021/11/21 10:07:44;;;;;;;30.67;19.33;;;;;;;;;;5010350;28;20113;-66
2021/11/21 10:10:14;;;;;;;31.10;19.95;;;;;;;;;;5011311;28;20018;-65
2021/11/21 10:12:41;;;;;;;31.17;20.27;;;;;;;;;;5014271;28;20026;-65
2021/11/21 10:15:12;;;;;;;32.08;20.42;;;;;;;;;;5013540;28;20503;-65
2021/11/21 10:17:39;;;;;;;31.42;19.98;;;;;;;;;;5014763;28;20513;-66
2021/11/21 10:20:08;;;;;;;36.67;20.65;;;;;;;;;;5014739;28;20072;-68
2021/11/21 10:22:55;;;;;;;29.73;17.50;;;;;;;;;;5014612;28;20395;-68
2021/11/21 10:25:44;;;;;;;29.15;19.23;;;;;;;;;;5013046;28;20105;-68
2021/11/21 10:28:11;;;;;;;33.00;19.52;;;;;;;;;;4990716;28;20054;-68
2021/11/21 10:30:54;;;;;;;29.40;18.92;;;;;;;;;;4993094;28;20030;-68
2021/11/21 10:33:22;;;;;;;30.02;19.30;;;;;;;;;;4992751;28;20065;-68
2021/11/21 10:35:53;;;;;;;29.83;18.75;;;;;;;;;;4992953;28;20092;-68
2021/11/21 10:38:19;;;;;;;35.53;19.60;;;;;;;;;;4993555;28;20034;-68
2021/11/21 10:40:45;;;;;;;30.48;20.02;;;;;;;;;;4993633;28;20061;-68
2021/11/21 10:43:15;;;;;;;29.50;18.80;;;;;;;;;;4993113;28;20022;-68
2021/11/21 10:45:41;;;;;;;26.67;17.17;;;;;;;;;;4994419;28;20081;-68
2021/11/21 10:48:07;;;;;;;30.42;19.13;;;;;;;;;;4994801;28;20029;-68
2021/11/21 10:50:35;;;;;;;28.92;18.77;;;;;;;;;;4994658;28;20019;-68
2021/11/21 10:53:03;;;;;;;27.95;17.02;;;;;;;;;;4994307;28;20023;-68
2021/11/21 10:55:29;;;;;;;26.33;17.33;;;;;;;;;;4994738;28;20049;-68
2021/11/21 10:57:55;;;;;;;28.20;19.30;;;;;;;;;;4994606;28;20499;-68
2021/11/21 11:00:28;;;;;;;28.02;18.15;;;;;;;;;;4994451;28;20031;-68
2021/11/21 11:02:55;;;;;;;27.40;16.67;;;;;;;;;;4994305;28;20396;-68
2021/11/21 11:05:22;;;;;;;26.83;16.95;;;;;;;;;;4995081;28;20033;-68
2021/11/21 11:07:48;;;;;;;27.65;17.20;;;;;;;;;;4994562;28;20045;-68
2021/11/21 11:10:23;;;;;;;23.88;16.58;;;;;;;;;;4994227;28;20480;-68
2021/11/21 11:13:11;;;;;;;24.95;17.58;;;;;;;;;;4993486;28;20513;-68
2021/11/21 11:15:39;;;;;;;25.80;17.08;;;;;;;;;;4994229;28;20487;-68
2021/11/21 11:18:06;;;;;;;22.98;16.25;;;;;;;;;;4994147;28;20022;-68
2021/11/21 11:20:37;;;;;;;23.23;15.30;;;;;;;;;;4992754;28;20106;-68
2021/11/21 11:23:03;;;;;;;24.90;15.53;;;;;;;;;;5000178;28;20026;-68
2021/11/21 11:25:31;;;;;;;27.40;17.05;;;;;;;;;;5000812;28;20376;-69
2021/11/21 11:28:12;;;;;;;25.60;16.23;;;;;;;;;;5018759;28;20029;-68
2021/11/21 11:30:38;;;;;;;;;;;;;;;;;;5015188;28;20029;-68
2021/11/21 11:33:06;;;;;;;23.48;15.13;;;;;;;;;;5013644;28;19917;-68
2021/11/21 11:35:33;;;;;;;22.05;14.30;;;;;;;;;;5013763;28;20440;-68
2021/11/21 11:38:08;;;;;;;23.45;14.30;;;;;;;;;;5013465;28;20056;-68
2021/11/21 11:40:42;;;;;;;24.15;15.05;;;;;;;;;;5013070;28;20022;-68
2021/11/21 11:43:17;;;;;;;24.50;15.95;;;;;;;;;;5013360;28;20029;-68
2021/11/21 11:45:44;;;;;;;26.23;16.55;;;;;;;;;;5014517;28;20028;-68
2021/11/21 11:48:33;;;;;;;23.35;16.20;;;;;;;;;;5014052;28;20029;-68
2021/11/21 11:51:00;;;;;;;21.48;14.43;;;;;;;;;;5013661;28;20029;-68
2021/11/21 11:53:33;;;;;;;25.00;15.65;;;;;;;;;;5011603;28;20041;-68
2021/11/21 11:56:16;;;;;;;23.90;15.27;;;;;;;;;;5013499;28;20025;-68
2021/11/21 11:59:06;;;;;;;23.77;15.70;;;;;;;;;;5012933;28;20499;-68
2021/11/21 12:01:32;;;;;;;23.75;14.95;;;;;;;;;;5007864;28;20045;-68
2021/11/21 12:04:01;;;;;;;24.20;15.18;;;;;;;;;;5015085;28;20026;-68
2021/11/21 12:06:37;;;;;;;24.75;16.23;;;;;;;;;;5015577;28;20030;-68
2021/11/21 12:09:21;;;;;;;30.05;17.45;;;;;;;;;;5014807;28;20021;-68
2021/11/21 12:11:59;;;;;;;26.48;15.38;;;;;;;;;;5013635;28;20077;-68
2021/11/21 12:14:26;;;;;;;24.05;15.95;;;;;;;;;;5013898;28;20018;-67
2021/11/21 12:16:55;;;;;;;30.42;17.63;;;;;;;;;;5015003;28;20030;-68
2021/11/21 12:19:40;;;;;;;23.52;15.00;;;;;;;;;;5015635;28;20029;-69
2021/11/21 12:22:26;;;;;;;25.08;15.85;;;;;;;;;;5016148;28;20092;-68
2021/11/21 12:24:53;;;;;;;21.75;14.57;;;;;;;;;;5012901;28;20076;-68
2021/11/21 12:27:27;;;;;;;26.20;16.88;;;;;;;;;;5013147;28;20036;-68
2021/11/21 12:30:08;;;;;;;24.80;16.40;;;;;;;;;;5012613;28;20447;-68
2021/11/21 12:32:34;;;;;;;;;;;;;;;;;;5011966;28;20538;-67
2021/11/21 12:35:02;;;;;;;26.48;15.98;;;;;;;;;;5012327;28;19913;-67
2021/11/21 12:37:36;;;;;;;25.67;15.45;;;;;;;;;;5012717;28;20483;-67
2021/11/21 12:40:08;;;;;;;24.80;15.82;;;;;;;;;;5013871;28;20029;-67
2021/11/21 12:42:35;;;;;;;26.27;16.73;;;;;;;;;;5013283;28;20466;-67
2021/11/21 12:45:13;;;;;;;25.27;16.10;;;;;;;;;;5014137;28;20058;-67
2021/11/21 12:47:39;;;;;;;25.30;15.85;;;;;;;;;;5013630;28;20483;-67
2021/11/21 12:50:06;;;;;;;22.48;14.50;;;;;;;;;;5013991;28;20022;-68
2021/11/21 12:52:32;;;;;;;22.77;15.07;;;;;;;;;;5012958;28;20018;-67
2021/11/21 12:54:59;;;;;;;24.83;16.33;;;;;;;;;;5010627;28;20032;-67
2021/11/21 12:57:26;;;;;;;23.42;15.57;;;;;;;;;;5012443;28;20026;-67
2021/11/21 12:59:57;;;;;;;25.80;16.30;;;;;;;;;;5011933;28;20487;-68
2021/11/21 13:02:28;;;;;;;23.77;15.52;;;;;;;;;;5012554;28;20033;-67
2021/11/21 13:05:00;;;;;;;25.75;15.77;;;;;;;;;;5012558;28;20487;-67
2021/11/21 13:07:37;;;;;;;22.42;14.60;;;;;;;;;;5012066;28;20034;-68
2021/11/21 13:10:05;;;;;;;21.65;13.93;;;;;;;;;;5012368;28;20061;-69
2021/11/21 13:12:42;;;;;;;26.08;15.75;;;;;;;;;;5011970;28;20168;-68
2021/11/21 13:15:13;;;;;;;22.48;14.35;;;;;;;;;;5012196;28;20069;-69
2021/11/21 13:17:39;;;;;;;26.20;14.73;;;;;;;;;;5012141;28;20048;-68
2021/11/21 13:20:07;;;;;;;20.52;13.20;;;;;;;;;;5010329;28;20261;-68
2021/11/21 13:22:48;;;;;;;20.75;14.57;;;;;;;;;;5010313;28;20033;-68
2021/11/21 13:25:27;;;;;;;20.73;13.05;;;;;;;;;;5010647;28;20391;-68
2021/11/21 13:28:13;;;;;;;21.38;13.38;;;;;;;;;;5016121;28;20470;-68
2021/11/21 13:30:41;;;;;;;21.30;13.75;;;;;;;;;;5012488;28;20092;-68
2021/11/21 13:33:15;;;;;;;19.27;13.07;;;;;;;;;;5013255;28;20026;-68
2021/11/21 13:35:41;;;;;;;20.90;13.77;;;;;;;;;;5012617;28;20029;-68
2021/11/21 13:38:07;;;;;;;21.30;14.13;;;;;;;;;;5012221;28;20030;-68
2021/11/21 13:40:33;;;;;;;19.58;13.20;;;;;;;;;;5012769;28;20073;-68
2021/11/21 13:43:06;;;;;;;21.70;13.73;;;;;;;;;;5012651;28;20542;-68
2021/11/21 13:45:32;;;;;;;20.08;13.25;;;;;;;;;;5012151;28;20506;-68
2021/11/21 13:47:59;;;;;;;19.98;13.25;;;;;;;;;;5017024;28;20030;-68
2021/11/21 13:50:30;;;;;;;18.42;12.55;;;;;;;;;;5016609;28;20157;-69
2021/11/21 13:52:57;;;;;;;20.20;13.13;;;;;;;;;;5017237;28;20380;-68
2021/11/21 13:55:26;;;;;;;19.67;13.57;;;;;;;;;;5015825;28;20029;-68
2021/11/21 13:57:56;;;;;;;17.95;13.20;;;;;;;;;;5016039;28;20026;-69
2021/11/21 14:00:29;;;;;;;21.95;13.00;;;;;;;;;;5017108;28;20040;-68
2021/11/21 14:02:59;;;;;;;20.30;13.60;;;;;;;;;;5016565;28;20053;-68
2021/11/21 14:05:26;;;;;;;23.17;13.70;;;;;;;;;;5015688;28;20483;-68
2021/11/21 14:07:56;;;;;;;22.38;13.75;;;;;;;;;;5017035;28;20028;-68
2021/11/21 14:10:28;;;;;;;17.25;12.32;;;;;;;;;;5017717;28;20399;-68
2021/11/21 14:13:12;;;;;;;18.60;12.25;;;;;;;;;;5015211;28;20105;-68
2021/11/21 14:15:38;;;;;;;19.70;12.73;;;;;;;;;;5014938;28;20025;-68
2021/11/21 14:18:04;;;;;;;17.75;12.23;;;;;;;;;;5014905;28;20562;-68
2021/11/21 14:20:30;;;;;;;19.25;13.32;;;;;;;;;;5014183;28;20117;-68
2021/11/21 14:23:04;;;;;;;22.58;14.30;;;;;;;;;;5015173;28;20080;-68
2021/11/21 14:25:31;;;;;;;20.52;13.48;;;;;;;;;;5015219;28;20025;-69